createdAt,value
2023-02-19T00:01:24.124Z,14.50
2023-02-19T00:03:53.370Z,14.87
2023-02-19T00:06:21.398Z,10.83
2023-02-19T00:08:48.866Z,15.50
2023-02-19T00:11:17.384Z,14.77
2023-02-19T00:13:46.540Z,14.30
2023-02-19T00:16:15.256Z,11.77
2023-02-19T00:18:43.042Z,10.03
2023-02-19T00:21:10.991Z,12.67
2023-02-19T00:23:38.466Z,19.53
2023-02-19T00:26:18.553Z,17.30
2023-02-19T00:28:46.984Z,14.37
2023-02-19T00:31:20.047Z,11.73
2023-02-19T00:33:47.898Z,12.73
2023-02-19T00:36:15.442Z,12.07
2023-02-19T00:38:43.440Z,13.07
2023-02-19T00:41:20.690Z,11.93
2023-02-19T00:43:54.056Z,11.17
2023-02-19T00:46:22.811Z,12.20
2023-02-19T00:48:50.330Z,14.97
2023-02-19T00:51:17.546Z,12.67
2023-02-19T00:53:44.761Z,11.33
2023-02-19T00:56:12.353Z,13.50
2023-02-19T00:58:39.754Z,12.80
2023-02-19T01:01:08.384Z,13.60
2023-02-19T01:03:36.006Z,12.80
2023-02-19T01:06:04.348Z,17.43
2023-02-19T01:08:32.072Z,12.97
2023-02-19T01:10:59.464Z,10.53
2023-02-19T01:13:28.341Z,12.30
2023-02-19T01:15:56.099Z,15.63
2023-02-19T01:18:23.252Z,12.70
2023-02-19T01:20:50.665Z,12.50
2023-02-19T01:23:17.942Z,14.37
2023-02-19T01:25:45.114Z,14.57
2023-02-19T01:28:12.481Z,13.93
2023-02-19T01:30:40.084Z,12.57
2023-02-19T01:33:08.126Z,11.57
2023-02-19T01:35:35.855Z,13.60
2023-02-19T01:38:03.515Z,14.70
2023-02-19T01:40:30.806Z,14.17
2023-02-19T01:42:58.107Z,12.97
2023-02-19T01:45:31.543Z,16.23
2023-02-19T01:47:59.041Z,15.53
2023-02-19T01:50:28.989Z,14.77
2023-02-19T01:52:56.404Z,13.63
2023-02-19T01:55:24.126Z,15.23
2023-02-19T01:57:54.139Z,15.00
2023-02-19T02:00:21.549Z,19.77
2023-02-19T02:02:50.401Z,15.40
2023-02-19T02:05:41.351Z,20.27
2023-02-19T02:08:27.728Z,13.17
2023-02-19T02:10:55.948Z,13.20
2023-02-19T02:13:23.439Z,15.57
2023-02-19T02:15:53.639Z,16.10
2023-02-19T02:18:36.689Z,19.17
2023-02-19T02:21:07.080Z,13.60
2023-02-19T02:23:57.459Z,22.63
2023-02-19T02:26:30.495Z,21.80
2023-02-19T02:29:16.196Z,13.97
2023-02-19T02:31:46.439Z,15.30
2023-02-19T02:34:13.969Z,11.90
2023-02-19T02:36:42.948Z,14.80
2023-02-19T02:39:12.119Z,12.17
2023-02-19T02:41:46.979Z,11.67
2023-02-19T02:44:14.402Z,17.13
2023-02-19T02:46:43.047Z,11.53
2023-02-19T02:49:13.918Z,14.50
2023-02-19T02:51:48.350Z,16.33
2023-02-19T02:54:35.955Z,11.17
2023-02-19T02:57:03.308Z,11.23
2023-02-19T02:59:35.072Z,14.33
2023-02-19T03:02:12.599Z,13.50
2023-02-19T03:05:04.656Z,10.23
2023-02-19T03:07:34.711Z,13.03
2023-02-19T03:10:02.581Z,11.20
2023-02-19T03:12:50.189Z,17.87
2023-02-19T03:15:36.487Z,14.20
2023-02-19T03:18:24.469Z,15.40
2023-02-19T03:20:53.680Z,9.57
2023-02-19T03:23:42.501Z,18.93
2023-02-19T03:26:11.549Z,18.87
2023-02-19T03:28:58.184Z,15.23
2023-02-19T03:31:25.961Z,13.40
2023-02-19T03:33:56.363Z,21.07
2023-02-19T03:36:27.345Z,13.17
2023-02-19T03:39:05.168Z,13.17
2023-02-19T03:41:49.976Z,14.60
2023-02-19T03:44:24.106Z,13.70
2023-02-19T03:47:03.620Z,14.93
2023-02-19T03:49:36.282Z,19.23
2023-02-19T03:52:03.820Z,17.53
2023-02-19T03:54:53.511Z,14.00
2023-02-19T03:57:33.011Z,17.70
2023-02-19T04:00:03.140Z,15.50
2023-02-19T04:02:33.699Z,16.80
2023-02-19T04:05:05.677Z,17.90
2023-02-19T04:07:34.525Z,22.10
2023-02-19T04:10:02.014Z,18.57
2023-02-19T04:12:30.133Z,12.87
2023-02-19T04:15:03.172Z,17.70
2023-02-19T04:17:36.516Z,14.30
2023-02-19T04:20:07.387Z,18.97
2023-02-19T04:22:35.640Z,18.50
2023-02-19T04:25:02.907Z,17.70
2023-02-19T04:27:30.086Z,17.83
2023-02-19T04:29:57.308Z,16.67
2023-02-19T04:32:24.562Z,24.17
2023-02-19T04:34:54.212Z,20.53
2023-02-19T04:37:21.651Z,21.27
2023-02-19T04:39:48.874Z,19.23
2023-02-19T04:42:16.034Z,17.60
2023-02-19T04:44:43.722Z,18.13
2023-02-19T04:47:11.109Z,15.73
2023-02-19T04:49:38.272Z,22.90
2023-02-19T04:52:05.487Z,18.73
2023-02-19T04:54:32.796Z,17.93
2023-02-19T04:56:59.962Z,25.60
2023-02-19T04:59:27.179Z,24.00
2023-02-19T05:01:54.589Z,17.73
2023-02-19T05:04:21.885Z,19.03
2023-02-19T05:06:49.107Z,18.63
2023-02-19T05:09:16.457Z,25.67
2023-02-19T05:11:43.843Z,20.73
2023-02-19T05:14:11.061Z,22.73
2023-02-19T05:16:38.238Z,18.40
2023-02-19T05:19:05.820Z,21.03
2023-02-19T05:21:33.167Z,19.00
2023-02-19T05:24:00.517Z,21.53
2023-02-19T05:26:27.823Z,20.67
2023-02-19T05:28:55.318Z,20.50
2023-02-19T05:31:22.878Z,20.30
2023-02-19T05:33:52.815Z,19.63
2023-02-19T05:36:21.720Z,21.23
2023-02-19T05:38:49.300Z,21.03
2023-02-19T05:41:18.060Z,20.33
2023-02-19T05:43:46.092Z,21.37
2023-02-19T05:46:14.658Z,22.20
2023-02-19T05:48:42.243Z,19.60
2023-02-19T05:51:11.331Z,21.90
2023-02-19T05:53:39.041Z,19.97
2023-02-19T05:56:17.330Z,22.33
2023-02-19T05:58:44.835Z,18.83
2023-02-19T06:01:18.878Z,18.30
2023-02-19T06:03:46.183Z,21.17
2023-02-19T06:06:16.780Z,22.77
2023-02-19T06:08:44.181Z,17.23
2023-02-19T06:11:11.948Z,24.47
2023-02-19T06:13:39.592Z,22.00
2023-02-19T06:16:08.080Z,23.27
2023-02-19T06:18:35.398Z,20.47
2023-02-19T06:21:03.365Z,18.23
2023-02-19T06:23:30.870Z,21.60
2023-02-19T06:26:08.293Z,19.57
2023-02-19T06:28:35.928Z,22.27
2023-02-19T06:31:03.191Z,22.07
2023-02-19T06:33:30.606Z,20.17
2023-02-19T06:36:04.719Z,21.00
2023-02-19T06:38:32.143Z,22.40
2023-02-19T06:41:03.311Z,25.07
2023-02-19T06:43:31.552Z,23.33
2023-02-19T06:46:00.048Z,24.30
2023-02-19T06:48:28.513Z,27.00
2023-02-19T06:50:55.948Z,21.80
2023-02-19T06:53:23.434Z,24.60
2023-02-19T06:55:57.857Z,20.10
2023-02-19T06:58:25.111Z,22.03
2023-02-19T07:00:52.751Z,22.27
2023-02-19T07:03:20.051Z,22.63
2023-02-19T07:05:47.436Z,20.27
2023-02-19T07:08:14.987Z,25.13
2023-02-19T07:10:42.255Z,28.93
2023-02-19T07:13:09.505Z,20.50
2023-02-19T07:15:36.802Z,20.97
2023-02-19T07:18:05.266Z,20.13
2023-02-19T07:20:32.498Z,23.10
2023-02-19T07:22:59.821Z,22.27
2023-02-19T07:25:27.053Z,24.30
2023-02-19T07:27:54.292Z,22.13
2023-02-19T07:30:21.540Z,19.77
2023-02-19T07:32:48.795Z,23.10
2023-02-19T07:35:16.086Z,20.27
2023-02-19T07:37:43.290Z,19.93
2023-02-19T07:40:10.596Z,20.07
2023-02-19T07:42:37.822Z,15.77
2023-02-19T07:45:05.162Z,21.37
2023-02-19T07:47:32.343Z,21.87
2023-02-19T07:49:59.797Z,22.03
2023-02-19T07:52:27.205Z,18.03
2023-02-19T07:54:54.445Z,18.37
2023-02-19T07:57:21.643Z,16.13
2023-02-19T07:59:48.861Z,22.37
2023-02-19T08:02:35.943Z,25.33
2023-02-19T08:05:03.728Z,23.33
2023-02-19T08:07:35.011Z,18.70
2023-02-19T08:10:21.194Z,13.13
2023-02-19T08:13:19.372Z,11.40
2023-02-19T08:15:46.697Z,14.07
2023-02-19T08:18:14.896Z,16.73
2023-02-19T08:20:42.189Z,20.57
2023-02-19T08:23:09.762Z,18.27
2023-02-19T08:25:37.223Z,18.60
2023-02-19T08:28:04.843Z,15.20
2023-02-19T08:30:32.612Z,19.03
2023-02-19T08:33:02.265Z,22.40
2023-02-19T08:35:29.703Z,15.37
2023-02-19T08:37:57.660Z,19.23
2023-02-19T08:40:25.670Z,13.97
2023-02-19T08:42:53.173Z,16.93
2023-02-19T08:45:20.467Z,24.50
2023-02-19T08:47:47.671Z,16.73
2023-02-19T08:50:14.974Z,19.23
2023-02-19T08:52:42.252Z,18.30
2023-02-19T08:55:09.535Z,16.53
2023-02-19T08:57:40.216Z,23.17
2023-02-19T09:00:08.866Z,18.83
2023-02-19T09:02:36.558Z,15.37
2023-02-19T09:05:03.863Z,12.97
2023-02-19T09:07:31.115Z,15.73
2023-02-19T09:09:58.704Z,14.80
2023-02-19T09:12:26.058Z,18.17
2023-02-19T09:14:53.301Z,14.03
2023-02-19T09:17:20.492Z,14.43
2023-02-19T09:19:50.004Z,18.50
2023-02-19T09:22:17.973Z,14.47
2023-02-19T09:24:45.410Z,14.97
2023-02-19T09:27:16.695Z,14.57
2023-02-19T09:29:43.936Z,13.63
2023-02-19T09:32:11.813Z,19.40
2023-02-19T09:34:39.178Z,12.80
2023-02-19T09:37:07.135Z,13.07
2023-02-19T09:39:34.787Z,12.10
2023-02-19T09:42:01.936Z,13.07
2023-02-19T09:44:34.128Z,9.47
2023-02-19T09:47:02.436Z,15.30
2023-02-19T09:49:41.320Z,11.50
2023-02-19T09:52:20.612Z,17.00
2023-02-19T09:54:48.166Z,12.27
2023-02-19T09:57:17.905Z,13.33
2023-02-19T09:59:47.005Z,13.30
2023-02-19T10:02:16.242Z,12.23
2023-02-19T10:04:44.592Z,7.40
2023-02-19T10:07:22.678Z,9.43
2023-02-19T10:09:53.965Z,9.13
2023-02-19T10:12:25.609Z,11.00
2023-02-19T10:14:54.002Z,11.77
2023-02-19T10:17:25.696Z,14.60
2023-02-19T10:19:53.656Z,12.07
2023-02-19T10:22:21.598Z,13.47
2023-02-19T10:24:53.703Z,9.70
2023-02-19T10:27:20.966Z,13.67
2023-02-19T10:29:49.302Z,7.77
2023-02-19T10:32:23.913Z,9.10
2023-02-19T10:35:13.811Z,9.13
2023-02-19T10:37:45.515Z,11.93
2023-02-19T10:40:18.976Z,10.50
2023-02-19T10:42:48.033Z,10.47
2023-02-19T10:45:20.567Z,12.50
2023-02-19T10:47:48.667Z,10.77
2023-02-19T10:50:22.606Z,12.87
2023-02-19T10:52:53.830Z,4.67
2023-02-19T10:55:24.013Z,7.43
2023-02-19T10:57:51.270Z,6.70
2023-02-19T11:00:27.471Z,9.13
2023-02-19T11:03:14.787Z,6.90
2023-02-19T11:05:51.199Z,9.37
2023-02-19T11:08:24.813Z,5.33
2023-02-19T11:10:52.205Z,7.87
2023-02-19T11:13:25.753Z,9.33
2023-02-19T11:15:54.775Z,12.60
2023-02-19T11:18:27.546Z,15.13
2023-02-19T11:20:56.903Z,11.73
2023-02-19T11:26:02.733Z,11.73
2023-02-19T11:28:36.901Z,13.43
2023-02-19T11:31:28.352Z,8.20
2023-02-19T11:33:57.384Z,8.40
2023-02-19T11:36:30.048Z,8.40
2023-02-19T11:38:58.461Z,8.90
2023-02-19T11:41:46.349Z,7.67
2023-02-19T11:44:32.424Z,10.43
2023-02-19T11:47:18.614Z,5.13
2023-02-19T11:49:58.376Z,7.47
2023-02-19T11:52:35.068Z,9.43
2023-02-19T11:55:08.391Z,8.00
2023-02-19T11:57:35.639Z,8.13
2023-02-19T12:00:02.860Z,6.33
2023-02-19T12:02:32.776Z,8.33
2023-02-19T12:04:59.976Z,6.80
2023-02-19T12:07:45.464Z,7.30
2023-02-19T12:10:22.602Z,7.97
2023-02-19T12:13:22.351Z,6.67
2023-02-19T12:18:44.848Z,8.50
2023-02-19T12:21:27.636Z,5.80
2023-02-19T12:24:13.610Z,5.40
2023-02-19T12:26:43.887Z,5.47
2023-02-19T12:29:13.974Z,11.53
2023-02-19T12:31:59.435Z,7.43
2023-02-19T12:34:46.876Z,11.33
2023-02-19T12:37:20.270Z,8.37
2023-02-19T12:39:50.448Z,3.97
2023-02-19T12:42:29.965Z,6.20
2023-02-19T12:45:00.441Z,3.83
2023-02-19T12:47:33.152Z,3.63
2023-02-19T12:50:19.142Z,8.13
2023-02-19T12:52:49.579Z,5.50
2023-02-19T12:55:20.354Z,3.70
2023-02-19T12:57:47.823Z,6.90
2023-02-19T13:00:32.254Z,8.37
2023-02-19T13:03:21.157Z,7.03
2023-02-19T13:05:51.279Z,9.33
2023-02-19T13:09:03.433Z,5.00
2023-02-19T13:11:36.707Z,4.83
2023-02-19T13:14:12.677Z,7.37
2023-02-19T13:16:43.060Z,7.27
2023-02-19T13:19:11.931Z,5.60
2023-02-19T13:21:57.908Z,6.97
2023-02-19T13:24:33.204Z,5.10
2023-02-19T13:27:17.484Z,6.13
2023-02-19T13:29:47.753Z,7.20
2023-02-19T13:32:15.036Z,5.73
2023-02-19T13:34:45.317Z,3.70
2023-02-19T13:37:12.714Z,6.43
2023-02-19T13:39:48.696Z,5.67
2023-02-19T13:42:24.980Z,9.03
2023-02-19T13:44:57.744Z,6.60
2023-02-19T13:47:44.629Z,5.37
2023-02-19T13:50:18.125Z,6.93
2023-02-19T13:52:45.814Z,7.57
2023-02-19T13:55:31.873Z,6.63
2023-02-19T13:58:18.388Z,8.40
2023-02-19T14:00:53.880Z,9.57
2023-02-19T14:03:40.714Z,4.53
2023-02-19T14:06:09.738Z,4.53
2023-02-19T14:08:51.067Z,3.90
2023-02-19T14:11:20.870Z,2.73
2023-02-19T14:13:51.172Z,5.30
2023-02-19T14:16:37.924Z,8.37
2023-02-19T14:19:14.010Z,5.00
2023-02-19T14:21:43.866Z,3.47
2023-02-19T14:24:15.251Z,5.67
2023-02-19T14:26:42.698Z,3.30
2023-02-19T14:29:10.668Z,4.80
2023-02-19T14:31:39.411Z,3.87
2023-02-19T14:34:08.402Z,5.20
2023-02-19T14:36:44.282Z,4.10
2023-02-19T14:39:17.679Z,5.00
2023-02-19T14:41:46.700Z,3.63
2023-02-19T14:44:16.578Z,4.03
2023-02-19T14:46:52.740Z,6.67
2023-02-19T14:49:43.245Z,4.93
2023-02-19T14:52:25.930Z,6.47
2023-02-19T14:55:00.766Z,5.73
2023-02-19T14:57:29.614Z,4.17
2023-02-19T15:00:01.564Z,4.67
2023-02-19T15:02:30.501Z,4.23
2023-02-19T15:04:57.856Z,5.30
2023-02-19T15:07:34.166Z,6.00
2023-02-19T15:10:05.523Z,3.37
2023-02-19T15:12:39.780Z,5.60
2023-02-19T15:15:07.742Z,7.07
2023-02-19T15:17:37.147Z,5.33
2023-02-19T15:20:09.720Z,3.63
2023-02-19T15:22:36.933Z,9.97
2023-02-19T15:25:05.877Z,8.70
2023-02-19T15:27:34.356Z,4.80
2023-02-19T15:30:01.631Z,9.33
2023-02-19T15:32:29.094Z,5.93
2023-02-19T15:35:03.038Z,4.87
2023-02-19T15:37:31.979Z,3.87
2023-02-19T15:40:04.118Z,4.23
2023-02-19T15:42:31.936Z,7.20
2023-02-19T15:45:02.110Z,6.23
2023-02-19T15:47:49.550Z,6.37
2023-02-19T15:50:18.777Z,4.60
2023-02-19T15:52:49.009Z,5.17
2023-02-19T15:55:16.282Z,4.67
2023-02-19T15:57:45.146Z,7.17
2023-02-19T16:00:29.360Z,7.90
2023-02-19T16:02:56.917Z,6.17
2023-02-19T16:05:25.843Z,10.73
2023-02-19T16:08:09.900Z,7.77
2023-02-19T16:10:37.274Z,12.20
2023-02-19T16:13:05.486Z,6.97
2023-02-19T16:15:34.314Z,8.97
2023-02-19T16:18:01.720Z,5.97
2023-02-19T16:20:33.465Z,8.30
2023-02-19T16:23:05.426Z,10.53
2023-02-19T16:25:42.119Z,8.93
2023-02-19T16:28:24.084Z,14.80
2023-02-19T16:31:08.488Z,10.17
2023-02-19T16:33:37.274Z,21.73
2023-02-19T16:36:19.912Z,21.70
2023-02-19T16:39:07.354Z,32.77
2023-02-19T16:41:35.308Z,33.40
2023-02-19T16:44:06.546Z,25.87
2023-02-19T16:46:41.200Z,13.70
2023-02-19T16:49:10.234Z,14.27
2023-02-19T16:51:37.602Z,78.00
2023-02-19T16:54:07.842Z,210.20
2023-02-19T16:56:35.063Z,133.50
2023-02-19T16:59:02.844Z,74.63
2023-02-19T17:01:30.313Z,20.20
2023-02-19T17:04:04.020Z,17.77
2023-02-19T17:06:33.137Z,14.80
2023-02-19T17:09:00.455Z,9.13
2023-02-19T17:11:28.145Z,15.23
2023-02-19T17:13:55.683Z,8.47
2023-02-19T17:16:27.592Z,11.90
2023-02-19T17:18:55.724Z,10.93
2023-02-19T17:21:28.144Z,10.40
2023-02-19T17:23:57.268Z,7.40
2023-02-19T17:26:29.027Z,9.27
2023-02-19T17:28:56.993Z,8.00
2023-02-19T17:31:24.273Z,12.30
2023-02-19T17:33:52.052Z,10.27
2023-02-19T17:36:30.778Z,9.77
2023-02-19T17:39:02.534Z,9.17
2023-02-19T17:41:30.230Z,8.03
2023-02-19T17:43:57.455Z,9.30
2023-02-19T17:46:26.400Z,9.43
2023-02-19T17:48:54.095Z,11.17
2023-02-19T17:51:26.732Z,14.27
2023-02-19T17:53:54.030Z,15.20
2023-02-19T17:56:22.584Z,10.90
2023-02-19T17:58:49.896Z,11.03
2023-02-19T18:01:18.874Z,12.33
2023-02-19T18:03:46.325Z,13.23
2023-02-19T18:06:13.619Z,12.10
2023-02-19T18:08:42.451Z,14.30
2023-02-19T18:11:10.169Z,7.70
2023-02-19T18:13:38.129Z,9.97
2023-02-19T18:16:06.259Z,12.70
2023-02-19T18:18:33.913Z,9.80
2023-02-19T18:21:01.118Z,15.73
2023-02-19T18:23:28.370Z,15.07
2023-02-19T18:25:55.573Z,10.30
2023-02-19T18:28:22.816Z,11.07
2023-02-19T18:30:50.244Z,9.77
2023-02-19T18:33:17.880Z,10.57
2023-02-19T18:35:47.421Z,13.00
2023-02-19T18:38:14.635Z,8.33
2023-02-19T18:40:42.091Z,7.77
2023-02-19T18:43:09.424Z,13.00
2023-02-19T18:45:39.413Z,10.40
2023-02-19T18:48:07.032Z,6.23
2023-02-19T18:50:35.092Z,9.50
2023-02-19T18:53:02.380Z,16.60
2023-02-19T18:55:29.962Z,14.33
2023-02-19T18:57:57.145Z,13.03
2023-02-19T19:00:26.633Z,18.20
2023-02-19T19:02:58.081Z,10.50
2023-02-19T19:05:25.723Z,12.10
2023-02-19T19:07:54.221Z,15.90
2023-02-19T19:10:21.779Z,21.87
2023-02-19T19:12:49.642Z,38.47
2023-02-19T19:15:18.423Z,57.97
2023-02-19T19:17:46.034Z,37.47
2023-02-19T19:20:13.835Z,33.50
2023-02-19T19:22:41.286Z,29.47
2023-02-19T19:25:09.039Z,33.20
2023-02-19T19:27:36.877Z,32.47
2023-02-19T19:30:05.197Z,15.37
2023-02-19T19:32:32.565Z,26.57
2023-02-19T19:34:59.980Z,16.00
2023-02-19T19:37:29.175Z,18.90
2023-02-19T19:39:56.728Z,19.53
2023-02-19T19:42:24.491Z,18.83
2023-02-19T19:44:52.167Z,11.60
2023-02-19T19:47:19.620Z,12.80
2023-02-19T19:49:47.412Z,17.77
2023-02-19T19:52:14.917Z,14.43
2023-02-19T19:54:43.165Z,10.83
2023-02-19T19:57:10.904Z,11.80
2023-02-19T19:59:39.539Z,19.17
2023-02-19T20:02:07.718Z,15.63
2023-02-19T20:04:35.006Z,28.70
2023-02-19T20:07:02.280Z,19.30
2023-02-19T20:09:29.669Z,18.47
2023-02-19T20:11:57.282Z,20.00
2023-02-19T20:14:25.338Z,14.57
2023-02-19T20:16:53.105Z,19.63
2023-02-19T20:19:23.900Z,16.40
2023-02-19T20:21:52.693Z,12.93
2023-02-19T20:24:24.380Z,10.43
2023-02-19T20:26:52.499Z,12.87
2023-02-19T20:29:19.780Z,14.27
2023-02-19T20:31:50.777Z,11.07
2023-02-19T20:34:18.778Z,16.93
2023-02-19T20:36:47.270Z,14.30
2023-02-19T20:39:15.786Z,12.77
2023-02-19T20:41:52.884Z,12.73
2023-02-19T20:44:20.585Z,10.17
2023-02-19T20:46:49.088Z,13.40
2023-02-19T20:49:19.706Z,16.13
2023-02-19T20:51:48.307Z,9.53
2023-02-19T20:54:17.655Z,13.27
2023-02-19T20:56:50.652Z,11.90
2023-02-19T20:59:18.897Z,11.67
2023-02-19T21:01:46.464Z,18.60
2023-02-19T21:04:14.146Z,8.90
2023-02-19T21:06:41.364Z,13.87
2023-02-19T21:09:08.589Z,13.43
2023-02-19T21:11:35.892Z,12.23
2023-02-19T21:14:03.160Z,25.30
2023-02-19T21:16:31.435Z,13.30
2023-02-19T21:18:58.743Z,18.00
2023-02-19T21:21:27.047Z,13.87
2023-02-19T21:23:59.772Z,17.73
2023-02-19T21:26:33.617Z,15.37
2023-02-19T21:29:01.108Z,17.53
2023-02-19T21:31:36.499Z,10.67
2023-02-19T21:34:08.168Z,11.73
2023-02-19T21:36:38.332Z,13.37
2023-02-19T21:39:08.132Z,14.77
2023-02-19T21:41:35.600Z,12.80
2023-02-19T21:44:02.940Z,13.07
2023-02-19T21:46:30.203Z,14.30
2023-02-19T21:48:57.785Z,14.93
2023-02-19T21:51:35.303Z,11.97
2023-02-19T21:54:03.136Z,13.37
2023-02-19T21:56:31.633Z,10.20
2023-02-19T21:58:59.192Z,14.27
2023-02-19T22:01:39.973Z,11.73
2023-02-19T22:04:08.782Z,14.30
2023-02-19T22:06:36.066Z,8.37
2023-02-19T22:09:04.231Z,11.70
2023-02-19T22:11:31.493Z,12.37
2023-02-19T22:13:58.934Z,17.77
2023-02-19T22:16:26.161Z,12.33
2023-02-19T22:18:54.926Z,14.03
2023-02-19T22:21:22.830Z,9.50
2023-02-19T22:23:51.465Z,12.93
2023-02-19T22:26:26.217Z,10.73
2023-02-19T22:28:53.576Z,14.73
2023-02-19T22:31:22.294Z,11.60
2023-02-19T22:33:49.582Z,8.37
2023-02-19T22:36:16.756Z,8.90
2023-02-19T22:38:44.039Z,9.50
2023-02-19T22:41:11.424Z,13.43
2023-02-19T22:43:38.803Z,10.23
2023-02-19T22:46:09.409Z,13.20
2023-02-19T22:48:36.827Z,10.17
2023-02-19T22:51:04.292Z,13.73
2023-02-19T22:53:34.113Z,9.13
2023-02-19T22:56:04.810Z,9.40
2023-02-19T22:58:32.056Z,10.23
2023-02-19T23:00:59.360Z,10.27
2023-02-19T23:03:26.582Z,14.63
2023-02-19T23:05:53.799Z,9.03
2023-02-19T23:08:21.286Z,9.80
2023-02-19T23:10:48.514Z,10.77
2023-02-19T23:13:15.824Z,6.60
2023-02-19T23:15:43.011Z,9.60
2023-02-19T23:18:10.230Z,10.57
2023-02-19T23:20:37.487Z,10.73
2023-02-19T23:23:04.672Z,12.90
2023-02-19T23:25:31.883Z,10.23
2023-02-19T23:27:59.076Z,7.60
2023-02-19T23:30:26.561Z,7.33
2023-02-19T23:32:53.853Z,12.17
2023-02-19T23:35:21.137Z,12.33
2023-02-19T23:37:48.430Z,12.57
2023-02-19T23:40:15.823Z,13.77
2023-02-19T23:42:43.348Z,11.77
2023-02-19T23:45:10.536Z,23.33
2023-02-19T23:47:37.724Z,11.67
2023-02-19T23:50:04.932Z,12.60
2023-02-19T23:52:32.176Z,18.27
2023-02-19T23:54:59.392Z,16.33
2023-02-19T23:57:26.612Z,14.83
2023-02-19T23:59:53.820Z,12.10
